Time;durP1;ratioP1;P1;durP2;ratioP2;P2;SDS_P1;SDS_P2;PMS_P1;PMS_P2;Temp;Humidity;BMP_temperature;BMP_pressure;BME280_temperature;BME280_humidity;BME280_pressure;Samples;Min_cycle;Max_cycle;Signal;HPM_P1;HPM_P2
2023/12/07 00:00:16;;;;;;;59.22;27.83;;;2.50;99.90;;;;;;4993648;28;20031;-71
2023/12/07 00:02:42;;;;;;;60.45;27.77;;;2.50;99.90;;;;;;4994283;28;20605;-70
2023/12/07 00:05:08;;;;;;;56.83;27.15;;;2.50;99.90;;;;;;4993405;28;20027;-69
2023/12/07 00:07:33;;;;;;;55.42;27.25;;;2.50;99.90;;;;;;4992889;28;20030;-70
2023/12/07 00:09:59;;;;;;;57.78;27.58;;;2.60;99.90;;;;;;5009227;28;20027;-70
2023/12/07 00:12:24;;;;;;;56.17;27.95;;;2.60;99.90;;;;;;4993516;28;20078;-70
2023/12/07 00:14:50;;;;;;;62.95;27.23;;;2.60;99.90;;;;;;4992758;28;20124;-70
2023/12/07 00:17:15;;;;;;;62.38;28.63;;;2.60;99.90;;;;;;4992047;28;20015;-70
2023/12/07 00:19:41;;;;;;;60.08;27.58;;;2.60;99.90;;;;;;5009115;28;20413;-69
2023/12/07 00:22:07;;;;;;;53.78;26.00;;;2.60;99.90;;;;;;4994658;28;20035;-68
2023/12/07 00:24:32;;;;;;;56.03;26.13;;;2.50;99.90;;;;;;4993881;28;20110;-69
2023/12/07 00:26:58;;;;;;;64.50;28.05;;;2.60;99.90;;;;;;4993360;28;20392;-69
2023/12/07 00:29:23;;;;;;;56.83;27.23;;;2.50;99.90;;;;;;4993495;28;20037;-70
2023/12/07 00:31:49;;;;;;;62.97;27.85;;;2.50;99.90;;;;;;4992069;28;20026;-70
2023/12/07 00:34:17;;;;;;;59.08;27.05;;;2.50;99.90;;;;;;4992860;28;20034;-70
2023/12/07 00:36:42;;;;;;;59.55;27.48;;;2.50;99.90;;;;;;4992701;28;20062;-69
2023/12/07 00:39:08;;;;;;;59.55;27.35;;;2.50;99.90;;;;;;4993312;28;20022;-71
2023/12/07 00:41:34;;;;;;;57.38;26.02;;;2.50;99.90;;;;;;4993723;28;20392;-69
2023/12/07 00:43:59;;;;;;;61.90;27.70;;;2.60;99.90;;;;;;4993603;28;20022;-70
2023/12/07 00:46:25;;;;;;;58.25;26.63;;;2.60;99.90;;;;;;4993168;28;20133;-71
2023/12/07 00:48:50;;;;;;;62.20;27.02;;;2.60;99.90;;;;;;4992935;28;20483;-71
2023/12/07 00:51:16;;;;;;;57.83;25.73;;;2.60;99.90;;;;;;4993212;28;20492;-70
2023/12/07 00:53:42;;;;;;;60.75;27.63;;;2.60;99.90;;;;;;4993542;28;20027;-71
2023/12/07 00:56:11;;;;;;;58.95;28.15;;;2.60;99.90;;;;;;4992692;28;20027;-71
2023/12/07 00:58:38;;;;;;;58.88;25.55;;;2.50;99.90;;;;;;4992431;28;20030;-70
2023/12/07 01:01:03;;;;;;;56.40;26.02;;;2.60;99.90;;;;;;4993193;28;20027;-70
2023/12/07 01:03:29;;;;;;;57.15;26.15;;;2.50;99.90;;;;;;4992814;28;20049;-70
2023/12/07 01:05:55;;;;;;;61.92;26.30;;;2.60;99.90;;;;;;4992715;28;20084;-70
2023/12/07 01:08:21;;;;;;;56.70;24.33;;;2.60;99.90;;;;;;5006789;28;20420;-70
2023/12/07 01:10:46;;;;;;;58.10;25.80;;;2.60;99.90;;;;;;4992651;28;20094;-69
2023/12/07 01:13:12;;;;;;;57.50;25.63;;;2.60;99.90;;;;;;4991475;28;20034;-69
2023/12/07 01:15:37;;;;;;;59.83;26.02;;;2.60;99.90;;;;;;4992396;28;20026;-70
2023/12/07 01:18:03;;;;;;;59.42;25.40;;;2.60;99.90;;;;;;4992423;28;20041;-68
2023/12/07 01:20:28;;;;;;;55.70;24.20;;;2.60;99.90;;;;;;4992248;28;20072;-71
2023/12/07 01:22:54;;;;;;;59.78;24.85;;;2.60;99.90;;;;;;4991731;28;20031;-69
2023/12/07 01:25:21;;;;;;;53.30;24.75;;;2.60;99.90;;;;;;4990966;28;20054;-69
2023/12/07 01:27:47;;;;;;;59.17;25.10;;;2.60;99.90;;;;;;4990793;28;20027;-68
2023/12/07 01:30:13;;;;;;;57.45;25.65;;;2.50;99.90;;;;;;4992492;28;20029;-69
2023/12/07 01:32:38;;;;;;;62.78;25.88;;;2.60;99.90;;;;;;4991971;28;20026;-69
2023/12/07 01:35:07;;;;;;;58.90;25.15;;;2.60;99.90;;;;;;4991377;28;20038;-69
2023/12/07 01:37:32;;;;;;;54.35;25.05;;;2.60;99.90;;;;;;4991416;28;20022;-68
2023/12/07 01:39:58;;;;;;;58.03;25.42;;;2.60;99.90;;;;;;4992309;28;20077;-69
2023/12/07 01:42:23;;;;;;;60.95;25.17;;;2.60;99.90;;;;;;4991939;28;20090;-69
2023/12/07 01:44:49;;;;;;;62.05;25.48;;;2.60;99.90;;;;;;4990460;28;20050;-71
2023/12/07 01:47:15;;;;;;;57.95;25.35;;;2.60;99.90;;;;;;4991488;28;20031;-68
2023/12/07 01:49:41;;;;;;;57.03;25.50;;;2.60;99.90;;;;;;4992693;28;20585;-69
2023/12/07 01:52:08;;;;;;;54.13;24.88;;;2.60;99.90;;;;;;5007468;28;20022;-70
2023/12/07 01:54:34;;;;;;;56.53;25.42;;;2.60;99.90;;;;;;4992765;28;20023;-68
2023/12/07 01:57:01;;;;;;;57.08;25.27;;;2.60;99.90;;;;;;4991855;28;20042;-68
2023/12/07 01:59:27;;;;;;;55.60;24.65;;;2.70;99.90;;;;;;4992193;28;20070;-70
2023/12/07 02:01:53;;;;;;;56.78;25.13;;;2.60;99.90;;;;;;4991737;28;20034;-69
2023/12/07 02:04:19;;;;;;;55.28;25.25;;;2.60;99.90;;;;;;4992529;28;20023;-70
2023/12/07 02:06:45;;;;;;;58.10;26.05;;;2.60;99.90;;;;;;4991959;28;20044;-69
2023/12/07 02:09:10;;;;;;;57.75;24.98;;;2.60;99.90;;;;;;4991427;28;20018;-70
2023/12/07 02:11:36;;;;;;;52.45;24.17;;;2.60;99.90;;;;;;4992514;28;20019;-69
2023/12/07 02:14:01;;;;;;;56.55;25.15;;;2.60;99.90;;;;;;4992476;28;20034;-70
2023/12/07 02:16:45;;;;;;;50.40;23.40;;;2.60;99.90;;;;;;4990516;28;20535;-69
2023/12/07 02:19:25;;;;;;;59.10;25.73;;;2.60;99.90;;;;;;4991784;28;20149;-70
2023/12/07 02:22:02;;;;;;;57.58;25.73;;;2.60;99.90;;;;;;4992067;28;20019;-72
2023/12/07 02:24:33;;;;;;;56.40;24.90;;;2.60;99.90;;;;;;4992130;28;20030;-72
2023/12/07 02:26:58;;;;;;;53.53;24.45;;;2.60;99.90;;;;;;4990712;28;20105;-70
2023/12/07 02:29:24;;;;;;;55.38;23.58;;;2.60;99.90;;;;;;4991888;28;20416;-72
2023/12/07 02:31:49;;;;;;;57.25;24.33;;;2.60;99.90;;;;;;4991622;28;20038;-71
2023/12/07 02:34:15;;;;;;;54.83;24.05;;;2.60;99.90;;;;;;5005356;28;20082;-69
2023/12/07 02:36:43;;;;;;;52.58;23.58;;;2.70;99.90;;;;;;4991792;28;20027;-71
2023/12/07 02:39:12;;;;;;;49.38;23.02;;;2.70;99.90;;;;;;4990647;28;20056;-71
2023/12/07 02:41:39;;;;;;;52.25;22.98;;;2.70;99.90;;;;;;4992307;28;20026;-71
2023/12/07 02:44:05;;;;;;;55.40;24.50;;;2.70;99.90;;;;;;4991890;28;20087;-69
2023/12/07 02:46:31;;;;;;;50.95;23.63;;;2.70;99.90;;;;;;4990123;28;20069;-71
2023/12/07 02:48:58;;;;;;;51.20;23.00;;;2.70;99.90;;;;;;4990649;28;20053;-69
2023/12/07 02:51:23;;;;;;;58.55;26.02;;;2.70;99.90;;;;;;4990785;28;20450;-70
2023/12/07 02:53:49;;;;;;;52.38;23.35;;;2.70;99.90;;;;;;4991968;28;20023;-71
2023/12/07 02:56:14;;;;;;;46.65;22.05;;;2.70;99.90;;;;;;4991911;28;20038;-68
2023/12/07 02:58:40;;;;;;;47.53;22.10;;;2.60;99.90;;;;;;4991653;28;20019;-71
2023/12/07 03:01:06;;;;;;;57.28;24.90;;;2.70;99.90;;;;;;4990063;28;20373;-69
2023/12/07 03:03:31;;;;;;;52.45;24.65;;;2.60;99.90;;;;;;4990885;28;20034;-68
2023/12/07 03:05:57;;;;;;;50.90;23.27;;;2.60;99.90;;;;;;4991356;28;20483;-68
2023/12/07 03:08:23;;;;;;;55.22;24.98;;;2.60;99.90;;;;;;4990394;28;20031;-69
2023/12/07 03:10:49;;;;;;;62.08;25.00;;;2.60;99.90;;;;;;4990648;28;20034;-69
2023/12/07 03:13:14;;;;;;;55.65;24.25;;;2.60;99.90;;;;;;4992600;28;20113;-68
2023/12/07 03:15:41;;;;;;;54.25;23.40;;;2.60;99.90;;;;;;4994690;28;20034;-69
2023/12/07 03:18:07;;;;;;;50.45;22.98;;;2.70;99.90;;;;;;4994641;28;20073;-70
2023/12/07 03:20:33;;;;;;;51.95;22.95;;;2.60;99.90;;;;;;4994642;28;20034;-72
2023/12/07 03:22:59;;;;;;;52.08;23.00;;;2.60;99.90;;;;;;4993673;28;20037;-69
2023/12/07 03:25:25;;;;;;;49.92;22.92;;;2.60;99.90;;;;;;4994000;28;20039;-71
2023/12/07 03:27:50;;;;;;;57.40;24.77;;;2.60;99.90;;;;;;4994607;28;20030;-70
2023/12/07 03:30:16;;;;;;;61.70;24.70;;;2.60;99.90;;;;;;4993977;28;20484;-69
2023/12/07 03:32:42;;;;;;;57.55;24.88;;;2.60;99.90;;;;;;4994729;28;20039;-69
2023/12/07 03:35:07;;;;;;;54.67;22.63;;;2.60;99.90;;;;;;4993694;28;20046;-71
2023/12/07 03:37:33;;;;;;;50.47;23.65;;;2.60;99.90;;;;;;4993242;28;20022;-69
2023/12/07 03:39:58;;;;;;;55.88;24.38;;;2.60;99.90;;;;;;4993938;28;20030;-68
2023/12/07 03:42:24;;;;;;;55.90;23.58;;;2.60;99.90;;;;;;4993256;28;20019;-70
2023/12/07 03:44:49;;;;;;;53.28;24.80;;;2.60;99.90;;;;;;4993474;28;20058;-69
2023/12/07 03:47:15;;;;;;;57.28;25.05;;;2.60;99.90;;;;;;4994409;28;20074;-69
2023/12/07 03:49:41;;;;;;;59.28;24.13;;;2.60;99.90;;;;;;4993933;28;20069;-69
2023/12/07 03:52:07;;;;;;;53.45;24.27;;;2.60;99.90;;;;;;4993653;28;20021;-70
2023/12/07 03:54:32;;;;;;;53.33;23.67;;;2.60;99.90;;;;;;4994013;28;20053;-69
2023/12/07 03:56:58;;;;;;;58.22;24.73;;;2.60;99.90;;;;;;4993870;28;20037;-70
2023/12/07 03:59:24;;;;;;;55.45;23.20;;;2.60;99.90;;;;;;4993739;28;20039;-69
2023/12/07 04:01:49;;;;;;;58.65;24.85;;;2.60;99.90;;;;;;4993902;28;20034;-72
2023/12/07 04:04:15;;;;;;;62.22;26.58;;;2.60;99.90;;;;;;4993751;28;20034;-70
2023/12/07 04:06:40;;;;;;;71.25;31.25;;;2.60;99.90;;;;;;5008400;28;20114;-69
2023/12/07 04:09:06;;;;;;;55.88;26.02;;;2.60;99.90;;;;;;4994740;28;20027;-70
2023/12/07 04:11:31;;;;;;;55.65;24.02;;;2.60;99.90;;;;;;4993770;28;20022;-70
2023/12/07 04:13:57;;;;;;;54.30;24.05;;;2.60;99.90;;;;;;4994797;28;20018;-70
2023/12/07 04:16:23;;;;;;;56.30;24.38;;;2.60;99.90;;;;;;4994408;28;20027;-69
2023/12/07 04:18:48;;;;;;;54.58;24.63;;;2.60;99.90;;;;;;4993128;28;20018;-71
2023/12/07 04:21:14;;;;;;;53.13;24.40;;;2.60;99.90;;;;;;4994450;28;20026;-68
2023/12/07 04:23:40;;;;;;;61.97;27.17;;;2.60;99.90;;;;;;4994440;28;21034;-70
2023/12/07 04:26:05;;;;;;;63.95;25.90;;;2.60;99.90;;;;;;4993002;28;20050;-70
2023/12/07 04:28:31;;;;;;;56.58;24.83;;;2.60;99.90;;;;;;4994048;28;20031;-69
2023/12/07 04:30:56;;;;;;;59.80;25.50;;;2.60;99.90;;;;;;4993036;28;20032;-70
2023/12/07 04:33:22;;;;;;;52.38;23.35;;;2.60;99.90;;;;;;4994018;28;20022;-70
2023/12/07 04:35:48;;;;;;;59.28;25.80;;;2.70;99.90;;;;;;4994489;28;20094;-70
2023/12/07 04:38:14;;;;;;;55.72;23.50;;;2.60;99.90;;;;;;4993020;28;20026;-70
2023/12/07 04:40:39;;;;;;;55.83;23.63;;;2.70;99.90;;;;;;4994136;28;20034;-67
2023/12/07 04:43:05;;;;;;;52.00;23.90;;;2.60;99.90;;;;;;4994009;28;20023;-70
2023/12/07 04:45:30;;;;;;;50.00;21.85;;;2.60;99.90;;;;;;4993889;28;20034;-69
2023/12/07 04:47:57;;;;;;;48.80;22.42;;;2.60;99.90;;;;;;4993407;28;21546;-67
2023/12/07 04:50:23;;;;;;;52.10;22.83;;;2.60;99.90;;;;;;4993992;28;20023;-69
2023/12/07 04:52:49;;;;;;;48.03;21.90;;;2.60;99.90;;;;;;4993218;28;20698;-70
2023/12/07 04:55:15;;;;;;;53.72;23.60;;;2.60;99.90;;;;;;4992800;28;20058;-70
2023/12/07 04:57:41;;;;;;;50.63;23.20;;;2.60;99.90;;;;;;4993718;28;20026;-68
2023/12/07 05:00:09;;;;;;;58.58;24.45;;;2.60;99.90;;;;;;4992296;28;20029;-70
2023/12/07 05:02:34;;;;;;;56.58;24.05;;;2.60;99.90;;;;;;4993507;28;20499;-68
2023/12/07 05:05:00;;;;;;;50.42;22.63;;;2.60;99.90;;;;;;5005804;28;20045;-68
2023/12/07 05:07:26;;;;;;;53.92;23.63;;;2.60;99.90;;;;;;4993438;28;20050;-68
2023/12/07 05:09:51;;;;;;;44.75;21.60;;;2.50;99.90;;;;;;4993870;28;20023;-68
2023/12/07 05:12:17;;;;;;;53.55;23.20;;;2.50;99.90;;;;;;4993715;28;20038;-69
2023/12/07 05:14:43;;;;;;;53.00;23.08;;;2.50;99.90;;;;;;4993234;28;20039;-69
2023/12/07 05:17:09;;;;;;;59.17;24.75;;;2.50;99.90;;;;;;4992802;28;20031;-70
2023/12/07 05:19:34;;;;;;;62.75;22.48;;;2.60;99.90;;;;;;4989497;28;20031;-71
2023/12/07 05:22:00;;;;;;;53.15;23.90;;;2.60;99.90;;;;;;4991771;28;20027;-71
2023/12/07 05:24:25;;;;;;;53.28;23.40;;;2.50;99.90;;;;;;4991283;28;20039;-73
2023/12/07 05:26:51;;;;;;;55.05;23.45;;;2.60;99.90;;;;;;4990353;28;20114;-71
2023/12/07 05:29:17;;;;;;;48.13;22.35;;;2.60;99.90;;;;;;4989172;28;20058;-71
2023/12/07 05:31:43;;;;;;;52.08;22.83;;;2.60;99.90;;;;;;4991747;28;20498;-69
2023/12/07 05:34:09;;;;;;;52.28;21.98;;;2.60;99.90;;;;;;4993041;28;20038;-69
2023/12/07 05:36:34;;;;;;;50.80;21.08;;;2.60;99.90;;;;;;4992807;28;20062;-70
2023/12/07 05:39:00;;;;;;;53.08;24.13;;;2.60;99.90;;;;;;4993080;28;20150;-70
2023/12/07 05:41:26;;;;;;;53.38;23.45;;;2.60;99.90;;;;;;4993077;28;20032;-71
2023/12/07 05:43:52;;;;;;;50.33;23.35;;;2.50;99.90;;;;;;5008635;28;20081;-70
2023/12/07 05:46:18;;;;;;;52.58;22.48;;;2.50;99.90;;;;;;4991397;28;20048;-69
2023/12/07 05:48:44;;;;;;;51.88;21.65;;;2.60;99.90;;;;;;4992716;28;20030;-70
2023/12/07 05:51:14;;;;;;;55.38;26.15;;;2.50;99.90;;;;;;4992589;28;20080;-69
2023/12/07 05:53:40;;;;;;;59.47;23.83;;;2.60;99.90;;;;;;4992464;28;20034;-70
2023/12/07 05:56:06;;;;;;;54.88;24.23;;;2.50;99.90;;;;;;4992828;28;20023;-70
2023/12/07 05:58:32;;;;;;;55.38;24.75;;;2.50;99.90;;;;;;4992759;28;20035;-71
2023/12/07 06:01:00;;;;;;;54.53;23.75;;;2.60;99.90;;;;;;4989671;28;20027;-71
2023/12/07 06:03:25;;;;;;;50.90;22.73;;;2.60;99.90;;;;;;4982301;28;20035;-70
2023/12/07 06:05:51;;;;;;;57.10;25.42;;;2.50;99.90;;;;;;4989537;28;20117;-71
2023/12/07 06:08:17;;;;;;;54.72;24.52;;;2.50;99.90;;;;;;4991948;28;20037;-70
2023/12/07 06:10:43;;;;;;;52.90;23.38;;;2.50;99.90;;;;;;4987496;28;20038;-70
2023/12/07 06:13:09;;;;;;;52.40;23.73;;;2.50;99.90;;;;;;4990790;28;20045;-70
2023/12/07 06:15:34;;;;;;;51.13;23.50;;;2.50;99.90;;;;;;4992507;28;20019;-72
2023/12/07 06:18:00;;;;;;;48.28;22.67;;;2.50;99.90;;;;;;4990034;28;20027;-71
2023/12/07 06:20:25;;;;;;;54.83;24.30;;;2.50;99.90;;;;;;4991437;28;20041;-71
2023/12/07 06:22:51;;;;;;;53.75;22.67;;;2.50;99.90;;;;;;4990402;28;20109;-70
2023/12/07 06:25:17;;;;;;;53.30;23.40;;;2.50;99.90;;;;;;4990990;28;20086;-69
2023/12/07 06:27:42;;;;;;;49.65;22.65;;;2.50;99.90;;;;;;4990647;28;20046;-69
2023/12/07 06:30:08;;;;;;;52.92;23.08;;;2.50;99.90;;;;;;4985934;28;20963;-71
2023/12/07 06:32:34;;;;;;;56.22;22.83;;;2.60;99.90;;;;;;4992494;28;20014;-69
2023/12/07 06:35:00;;;;;;;53.25;22.73;;;2.60;99.90;;;;;;4987050;28;20050;-70
2023/12/07 06:37:26;;;;;;;48.58;22.02;;;2.50;99.90;;;;;;4992380;28;20167;-71
2023/12/07 06:39:52;;;;;;;50.72;22.00;;;2.60;99.90;;;;;;4991200;28;20152;-72
2023/12/07 06:42:18;;;;;;;47.75;21.55;;;2.50;99.90;;;;;;4992260;28;20031;-71
2023/12/07 06:44:46;;;;;;;49.05;21.95;;;2.50;99.90;;;;;;4991417;28;20026;-71
2023/12/07 06:47:11;;;;;;;49.42;21.30;;;2.60;99.90;;;;;;4991126;28;20045;-71
2023/12/07 06:49:37;;;;;;;48.08;21.42;;;2.60;99.90;;;;;;4985533;28;20031;-70
2023/12/07 06:52:03;;;;;;;49.97;21.25;;;2.60;99.90;;;;;;4983854;28;20332;-70
2023/12/07 06:54:28;;;;;;;49.47;20.48;;;2.60;99.90;;;;;;4985355;28;20042;-70
2023/12/07 06:56:54;;;;;;;50.13;21.95;;;2.60;99.90;;;;;;4986717;28;20031;-72
2023/12/07 06:59:20;;;;;;;51.92;22.08;;;2.60;99.90;;;;;;4987292;28;20026;-70
2023/12/07 07:01:45;;;;;;;46.65;20.52;;;2.60;99.90;;;;;;4988980;28;20077;-70
2023/12/07 07:04:11;;;;;;;48.50;21.67;;;2.60;99.90;;;;;;4990875;28;20026;-69
2023/12/07 07:06:37;;;;;;;51.83;22.23;;;2.60;99.90;;;;;;4991456;28;20132;-70
2023/12/07 07:09:04;;;;;;;49.72;22.92;;;2.60;99.90;;;;;;4991464;28;20026;-70
2023/12/07 07:11:30;;;;;;;44.50;20.88;;;2.60;99.90;;;;;;4991738;28;20030;-72
2023/12/07 07:13:55;;;;;;;50.47;21.75;;;2.60;99.90;;;;;;4991783;28;20026;-70
2023/12/07 07:16:21;;;;;;;50.42;22.30;;;2.60;99.90;;;;;;4991836;28;20085;-71
2023/12/07 07:18:47;;;;;;;49.38;20.90;;;2.60;99.90;;;;;;4991684;28;20045;-70
2023/12/07 07:21:12;;;;;;;48.58;21.15;;;2.60;99.90;;;;;;4991363;28;20105;-71
2023/12/07 07:23:38;;;;;;;44.15;19.30;;;2.60;99.90;;;;;;4991236;28;20094;-71
2023/12/07 07:26:04;;;;;;;50.22;20.85;;;2.70;99.90;;;;;;4990886;28;20407;-70
2023/12/07 07:28:29;;;;;;;44.80;20.17;;;2.70;99.90;;;;;;4990280;28;20027;-70
2023/12/07 07:30:55;;;;;;;48.20;20.73;;;2.70;99.90;;;;;;4991958;28;20037;-71
2023/12/07 07:33:21;;;;;;;46.90;19.75;;;2.70;99.90;;;;;;4991306;28;20019;-70
2023/12/07 07:35:47;;;;;;;46.92;20.58;;;2.70;99.90;;;;;;4991385;28;20042;-70
2023/12/07 07:38:12;;;;;;;47.92;20.45;;;2.70;99.90;;;;;;4991646;28;20030;-70
2023/12/07 07:40:38;;;;;;;49.35;21.27;;;2.60;99.90;;;;;;4990103;28;20033;-71
2023/12/07 07:43:03;;;;;;;47.90;20.88;;;2.60;99.90;;;;;;4991448;28;20018;-72
2023/12/07 07:45:29;;;;;;;48.88;21.60;;;2.60;99.90;;;;;;4984783;28;20042;-70
2023/12/07 07:47:54;;;;;;;52.15;21.60;;;2.60;99.90;;;;;;4990412;28;20037;-71
2023/12/07 07:50:20;;;;;;;48.22;21.23;;;2.60;99.90;;;;;;4990402;28;20484;-72
2023/12/07 07:52:46;;;;;;;47.78;20.52;;;2.60;99.90;;;;;;4992224;28;20062;-71
2023/12/07 07:55:12;;;;;;;48.95;19.98;;;2.60;99.90;;;;;;4990677;28;20539;-71
2023/12/07 07:57:37;;;;;;;45.45;20.38;;;2.70;99.90;;;;;;4987224;28;20035;-70
2023/12/07 08:00:08;;;;;;;45.00;19.27;;;2.70;99.90;;;;;;4986611;28;20026;-70
2023/12/07 08:02:34;;;;;;;43.90;20.15;;;2.70;99.90;;;;;;4992785;28;20037;-70
2023/12/07 08:04:59;;;;;;;47.30;20.30;;;2.70;99.90;;;;;;4993548;28;20035;-70
2023/12/07 08:07:25;;;;;;;47.78;20.75;;;2.70;99.90;;;;;;4993677;28;20074;-72
2023/12/07 08:09:50;;;;;;;47.17;21.05;;;2.80;99.90;;;;;;4992790;28;20034;-72
2023/12/07 08:12:16;;;;;;;46.45;20.58;;;2.70;99.90;;;;;;4992926;28;20069;-71
2023/12/07 08:14:43;;;;;;;40.92;18.73;;;2.70;99.90;;;;;;4993469;28;20039;-70
2023/12/07 08:17:09;;;;;;;47.17;21.05;;;2.70;99.90;;;;;;4992203;28;20015;-70
2023/12/07 08:19:34;;;;;;;46.58;20.77;;;2.80;99.90;;;;;;4992990;28;20041;-72
2023/12/07 08:22:00;;;;;;;45.25;20.23;;;2.80;99.90;;;;;;4990199;28;20031;-70
2023/12/07 08:24:26;;;;;;;48.13;21.40;;;2.80;99.90;;;;;;4991201;28;20031;-71
2023/12/07 08:26:51;;;;;;;49.00;20.88;;;2.80;99.90;;;;;;4986844;28;20065;-71
2023/12/07 08:29:17;;;;;;;50.85;21.10;;;2.80;99.90;;;;;;4980620;28;20030;-71
2023/12/07 08:31:43;;;;;;;46.70;21.20;;;2.80;99.90;;;;;;4993391;28;20046;-70
2023/12/07 08:34:08;;;;;;;47.67;21.10;;;2.80;99.90;;;;;;5009044;28;20034;-70
2023/12/07 08:36:34;;;;;;;50.33;22.55;;;2.80;99.90;;;;;;4993025;28;20476;-70
2023/12/07 08:38:59;;;;;;;51.38;22.77;;;2.80;99.90;;;;;;4992630;28;20040;-70
2023/12/07 08:41:25;;;;;;;49.80;21.88;;;2.80;99.90;;;;;;4990583;28;20033;-69
2023/12/07 08:43:50;;;;;;;49.70;21.77;;;2.80;99.90;;;;;;4992116;28;20070;-70
2023/12/07 08:46:16;;;;;;;50.00;21.95;;;2.80;99.90;;;;;;4992616;28;20030;-70
2023/12/07 08:48:42;;;;;;;50.20;21.55;;;2.80;99.90;;;;;;4993233;28;20089;-70
2023/12/07 08:51:08;;;;;;;49.60;22.30;;;2.90;99.90;;;;;;4994540;28;20089;-71
2023/12/07 08:53:35;;;;;;;48.40;22.35;;;2.90;99.90;;;;;;4993745;28;20038;-70
2023/12/07 08:56:01;;;;;;;51.88;23.13;;;2.90;99.90;;;;;;4994427;28;20050;-71
2023/12/07 08:58:27;;;;;;;49.97;22.10;;;2.90;99.90;;;;;;4991431;28;20087;-72
2023/12/07 09:00:53;;;;;;;55.92;23.27;;;3.00;99.90;;;;;;4990651;28;20138;-70
2023/12/07 09:03:19;;;;;;;52.17;23.50;;;3.00;99.90;;;;;;5006824;28;20241;-70
2023/12/07 09:05:44;;;;;;;51.35;23.52;;;3.00;99.90;;;;;;4988242;28;20035;-70
2023/12/07 09:08:10;;;;;;;46.60;22.00;;;3.10;99.90;;;;;;4990852;28;20030;-71
2023/12/07 09:10:35;;;;;;;50.35;21.92;;;3.00;99.90;;;;;;4991200;28;20444;-72
2023/12/07 09:13:01;;;;;;;50.40;22.55;;;3.00;99.90;;;;;;4987901;28;20049;-73
2023/12/07 09:15:26;;;;;;;47.42;22.20;;;3.00;99.90;;;;;;4993306;28;20059;-71
2023/12/07 09:17:52;;;;;;;53.15;23.15;;;3.00;99.90;;;;;;4994231;28;20049;-73
2023/12/07 09:20:18;;;;;;;53.03;23.20;;;3.00;99.90;;;;;;5008375;28;20026;-73
2023/12/07 09:22:45;;;;;;;51.85;22.33;;;3.10;99.90;;;;;;5007733;28;20711;-72
2023/12/07 09:25:11;;;;;;;44.65;21.38;;;3.10;99.90;;;;;;4992010;28;20045;-71
2023/12/07 09:27:38;;;;;;;51.78;23.70;;;3.10;99.90;;;;;;4991189;28;20062;-68
2023/12/07 09:30:12;;;;;;;50.38;22.17;;;3.10;99.90;;;;;;4991346;28;20023;-70
2023/12/07 09:32:39;;;;;;;53.88;23.25;;;3.10;99.90;;;;;;4990822;28;20511;-70
2023/12/07 09:35:18;;;;;;;46.58;21.27;;;3.20;99.90;;;;;;4990515;28;20030;-70
2023/12/07 09:37:45;;;;;;;44.33;21.00;;;3.20;99.90;;;;;;4990793;28;20026;-70
2023/12/07 09:40:25;;;;;;;42.10;20.23;;;3.30;99.90;;;;;;4985818;28;20037;-70
2023/12/07 09:42:51;;;;;;;48.03;21.27;;;3.30;99.90;;;;;;4990425;28;20037;-71
2023/12/07 09:45:19;;;;;;;41.88;19.98;;;3.30;99.90;;;;;;4990205;28;20026;-72
2023/12/07 09:47:52;;;;;;;46.75;20.92;;;3.30;99.90;;;;;;4991255;28;20074;-71
2023/12/07 09:50:21;;;;;;;48.20;20.75;;;3.30;99.90;;;;;;4990373;28;20069;-72
2023/12/07 09:52:49;;;;;;;43.00;20.10;;;3.30;99.90;;;;;;4989009;28;20089;-70
2023/12/07 09:55:19;;;;;;;44.65;20.42;;;3.30;99.90;;;;;;4990026;28;20042;-70
2023/12/07 09:57:48;;;;;;;48.03;20.65;;;3.30;99.90;;;;;;4992077;28;20034;-70
2023/12/07 10:00:14;;;;;;;46.33;21.77;;;3.40;99.90;;;;;;4986199;28;20039;-71
2023/12/07 10:02:42;;;;;;;46.70;21.13;;;3.40;99.90;;;;;;4981470;28;20046;-69
2023/12/07 10:05:10;;;;;;;47.72;22.00;;;3.40;99.90;;;;;;4987472;28;20034;-70
2023/12/07 10:07:39;;;;;;;48.28;20.95;;;3.40;99.90;;;;;;4984677;28;20034;-68
2023/12/07 10:10:05;;;;;;;47.25;21.15;;;3.40;99.90;;;;;;4991937;28;20133;-69
2023/12/07 10:12:34;;;;;;;44.55;21.55;;;3.40;99.90;;;;;;5007613;28;20023;-70
2023/12/07 10:15:03;;;;;;;43.92;21.63;;;3.40;99.90;;;;;;4992618;28;20031;-70
2023/12/07 10:17:52;;;;;;;50.05;23.00;;;3.40;99.90;;;;;;4990839;28;20031;-70
2023/12/07 10:20:23;;;;;;;44.22;21.50;;;3.40;99.90;;;;;;4991973;28;20034;-71
2023/12/07 10:23:00;;;;;;;56.45;23.45;;;3.40;99.90;;;;;;4987436;28;20035;-70
2023/12/07 10:25:26;;;;;;;50.83;23.45;;;3.40;99.90;;;;;;4990752;28;20097;-70
2023/12/07 10:27:52;;;;;;;53.63;24.65;;;3.40;99.90;;;;;;5003407;28;20031;-69
2023/12/07 10:30:24;;;;;;;52.13;24.63;;;3.50;99.90;;;;;;4991754;28;20367;-69
2023/12/07 10:32:50;;;;;;;55.95;25.35;;;3.50;99.90;;;;;;4988165;28;20919;-69
2023/12/07 10:35:18;;;;;;;63.38;28.10;;;3.60;99.90;;;;;;4988186;28;20035;-70
2023/12/07 10:37:43;;;;;;;62.08;27.00;;;3.60;99.90;;;;;;4990224;28;20611;-69
2023/12/07 10:40:09;;;;;;;55.72;25.63;;;3.60;99.90;;;;;;4990574;28;20035;-69
2023/12/07 10:42:37;;;;;;;57.60;25.45;;;3.60;99.90;;;;;;4988123;28;20041;-70
2023/12/07 10:45:06;;;;;;;54.30;25.73;;;3.60;99.90;;;;;;4987793;28;20038;-71
2023/12/07 10:47:37;;;;;;;59.80;28.30;;;3.60;99.90;;;;;;4988604;28;20129;-71
2023/12/07 10:50:10;;;;;;;56.35;27.88;;;3.70;99.90;;;;;;4990018;28;20023;-70
2023/12/07 10:52:39;;;;;;;60.87;30.20;;;3.70;99.90;;;;;;4990758;28;20023;-71
2023/12/07 10:55:14;;;;;;;55.92;27.05;;;3.80;99.90;;;;;;4989918;28;20031;-70
2023/12/07 10:57:40;;;;;;;55.20;26.13;;;3.70;99.90;;;;;;4989860;28;20039;-72
2023/12/07 11:00:08;;;;;;;58.90;28.17;;;3.70;99.90;;;;;;4991399;28;20082;-69
2023/12/07 11:02:34;;;;;;;56.95;28.88;;;3.70;99.90;;;;;;4989533;28;20113;-71
2023/12/07 11:05:01;;;;;;;60.42;30.08;;;3.70;99.90;;;;;;4990771;28;20035;-70
2023/12/07 11:07:36;;;;;;;61.05;28.42;;;3.70;99.90;;;;;;4988472;28;20031;-71
2023/12/07 11:10:15;;;;;;;60.33;28.02;;;3.70;99.90;;;;;;4990137;28;20031;-71
2023/12/07 11:13:06;;;;;;;59.75;27.55;;;3.70;99.90;;;;;;4973857;28;20022;-72
2023/12/07 11:15:32;;;;;;;66.25;29.08;;;3.70;99.90;;;;;;4990774;28;20038;-72
2023/12/07 11:17:58;;;;;;;68.68;29.83;;;3.70;99.90;;;;;;4988300;28;20027;-72
2023/12/07 11:20:41;;;;;;;59.15;28.02;;;3.70;99.90;;;;;;5006461;28;20019;-70
2023/12/07 11:23:08;;;;;;;60.75;28.65;;;3.70;99.90;;;;;;4991343;28;20112;-69
2023/12/07 11:25:34;;;;;;;64.43;29.75;;;3.70;99.90;;;;;;4978040;28;20039;-69
2023/12/07 11:28:02;;;;;;;66.90;31.10;;;3.70;99.90;;;;;;4991226;28;20457;-70
2023/12/07 11:30:30;;;;;;;63.35;30.35;;;3.70;99.90;;;;;;4991104;28;20019;-70
2023/12/07 11:32:55;;;;;;;67.88;29.70;;;3.80;99.90;;;;;;4990504;28;20030;-71
2023/12/07 11:35:21;;;;;;;60.42;27.77;;;3.80;99.90;;;;;;4994347;28;20556;-72
2023/12/07 11:38:07;;;;;;;57.25;28.35;;;3.80;99.90;;;;;;4992411;28;20081;-71
2023/12/07 11:40:38;;;;;;;56.80;26.52;;;3.80;99.90;;;;;;4994100;28;20018;-69
2023/12/07 11:43:05;;;;;;;50.63;25.08;;;3.90;99.90;;;;;;4993573;28;20149;-71
2023/12/07 11:45:37;;;;;;;61.40;24.38;;;3.80;99.90;;;;;;4994306;28;20022;-69
2023/12/07 11:48:22;;;;;;;51.35;24.58;;;3.80;99.90;;;;;;4992150;28;20031;-71
2023/12/07 11:51:00;;;;;;;53.50;24.42;;;3.90;99.90;;;;;;5008912;28;20054;-70
2023/12/07 11:53:29;;;;;;;49.47;23.55;;;3.90;99.90;;;;;;4986405;28;20042;-70
2023/12/07 11:55:57;;;;;;;45.95;23.48;;;3.90;99.90;;;;;;4989143;28;20037;-69
2023/12/07 11:58:27;;;;;;;49.88;23.95;;;3.90;99.90;;;;;;4992957;28;20055;-69
2023/12/07 12:00:56;;;;;;;43.08;22.55;;;3.90;99.90;;;;;;4993722;28;20019;-70
2023/12/07 12:03:32;;;;;;;48.35;22.95;;;3.90;99.90;;;;;;4992185;28;20146;-68
2023/12/07 12:05:58;;;;;;;50.80;23.33;;;3.90;99.90;;;;;;4990369;28;20057;-69
2023/12/07 12:08:24;;;;;;;49.45;24.00;;;3.90;99.90;;;;;;4990642;28;20027;-68
2023/12/07 12:10:52;;;;;;;49.17;23.63;;;3.90;99.90;;;;;;4991884;28;20034;-69
2023/12/07 12:13:18;;;;;;;48.17;22.42;;;3.90;99.90;;;;;;4992766;28;20033;-69
2023/12/07 12:15:46;;;;;;;48.28;23.00;;;3.90;99.90;;;;;;5008548;28;20023;-68
2023/12/07 12:18:13;;;;;;;52.10;23.70;;;3.90;99.90;;;;;;4993845;28;20054;-70
2023/12/07 12:20:39;;;;;;;48.03;22.60;;;3.90;99.90;;;;;;4993885;28;20487;-69
2023/12/07 12:23:05;;;;;;;46.70;22.52;;;3.90;99.90;;;;;;4987331;28;20102;-69
2023/12/07 12:25:32;;;;;;;47.63;21.35;;;3.90;99.90;;;;;;4992070;28;20097;-69
2023/12/07 12:28:01;;;;;;;45.40;22.05;;;3.90;99.90;;;;;;4991688;28;20037;-70
2023/12/07 12:30:28;;;;;;;46.03;22.58;;;3.90;99.90;;;;;;4989675;28;20045;-69
2023/12/07 12:32:54;;;;;;;44.25;21.83;;;4.00;99.90;;;;;;4993467;28;20099;-69